Time;durP1;ratioP1;P1;durP2;ratioP2;P2;SDS_P1;SDS_P2;PMS_P1;PMS_P2;Temp;Humidity;BMP_temperature;BMP_pressure;BME280_temperature;BME280_humidity;BME280_pressure;Samples;Min_cycle;Max_cycle;Signal;HPM_P1;HPM_P2
2022/05/03 00:00:07;;;;;;;116.60;106.20;;;11.50;53.40;;;;;;4996540;28;20545;-74
2022/05/03 00:02:48;;;;;;;117.22;106.72;;;11.40;53.60;;;;;;4996812;28;20414;-74
2022/05/03 00:05:30;;;;;;;116.32;105.93;;;11.40;53.70;;;;;;4996817;28;20584;-74
2022/05/03 00:08:04;;;;;;;114.75;104.35;;;11.40;53.90;;;;;;4996558;28;20524;-74
2022/05/03 00:10:40;;;;;;;115.63;105.22;;;11.30;53.60;;;;;;5014306;28;20133;-73
2022/05/03 00:13:12;;;;;;;115.35;104.95;;;11.30;53.50;;;;;;4996754;28;20432;-74
2022/05/03 00:15:41;;;;;;;115.55;105.07;;;11.20;53.60;;;;;;4996340;28;20058;-74
2022/05/03 00:18:09;;;;;;;116.63;106.22;;;11.10;53.70;;;;;;5014014;28;20050;-74
2022/05/03 00:20:39;;;;;;;116.90;106.40;;;11.10;53.80;;;;;;5014150;28;20050;-73
2022/05/03 00:23:07;;;;;;;115.07;104.68;;;11.00;53.90;;;;;;4996397;28;20074;-74
2022/05/03 00:25:34;;;;;;;115.47;105.07;;;11.00;53.70;;;;;;4996557;28;20050;-73
2022/05/03 00:28:02;;;;;;;115.90;105.40;;;11.00;53.60;;;;;;4996469;28;20460;-73
2022/05/03 00:30:29;;;;;;;115.75;105.35;;;10.90;53.70;;;;;;4996493;28;20137;-73
2022/05/03 00:32:59;;;;;;;115.60;105.15;;;10.80;53.90;;;;;;4996383;28;20484;-73
2022/05/03 00:35:27;;;;;;;114.43;104.03;;;10.80;54.10;;;;;;4996215;28;20050;-73
2022/05/03 00:37:55;;;;;;;116.10;105.70;;;10.70;54.30;;;;;;5013295;28;20553;-74
2022/05/03 00:40:23;;;;;;;115.95;105.60;;;10.70;54.40;;;;;;4996420;28;20062;-74
2022/05/03 00:42:57;;;;;;;116.85;106.35;;;10.60;54.40;;;;;;4996099;28;20061;-73
2022/05/03 00:45:33;;;;;;;114.88;104.53;;;10.60;54.50;;;;;;4996079;28;20485;-74
2022/05/03 00:48:08;;;;;;;115.20;104.70;;;10.60;54.40;;;;;;4995719;28;20057;-74
2022/05/03 00:50:40;;;;;;;115.20;104.50;;;10.50;54.30;;;;;;5013752;28;20058;-73
2022/05/03 00:53:13;;;;;;;116.60;105.93;;;10.50;54.00;;;;;;5013599;28;20061;-73
2022/05/03 00:56:19;;;;;;;115.05;104.53;;;10.50;54.30;;;;;;5013519;28;20058;-74
2022/05/03 00:58:59;;;;;;;116.95;106.25;;;10.40;54.10;;;;;;4993684;28;20057;-74
2022/05/03 01:01:35;;;;;;;116.88;105.97;;;10.40;54.50;;;;;;5013574;28;20050;-74
2022/05/03 01:04:13;;;;;;;115.88;105.35;;;10.30;54.60;;;;;;4996144;28;20517;-74
2022/05/03 01:06:52;;;;;;;115.55;104.95;;;10.30;54.80;;;;;;4995787;28;20635;-74
2022/05/03 01:09:31;;;;;;;115.80;105.30;;;10.20;54.80;;;;;;5013004;28;20054;-74
2022/05/03 01:12:24;;;;;;;115.25;104.75;;;10.20;55.00;;;;;;4996118;28;20051;-74
2022/05/03 01:15:08;;;;;;;114.47;103.90;;;10.20;55.20;;;;;;4995214;28;20594;-74
2022/05/03 01:17:43;;;;;;;114.68;104.18;;;10.10;55.10;;;;;;4995686;28;20525;-74
2022/05/03 01:20:15;;;;;;;114.47;104.00;;;10.10;55.40;;;;;;4995896;28;20580;-74
2022/05/03 01:23:24;;;;;;;115.82;105.22;;;10.10;55.30;;;;;;4995850;28;21007;-74
2022/05/03 01:26:19;;;;;;;114.80;104.20;;;10.00;55.30;;;;;;4995447;28;20473;-74
2022/05/03 01:29:00;;;;;;;115.63;105.03;;;10.00;55.70;;;;;;4972776;28;20054;-74
2022/05/03 01:31:29;;;;;;;114.53;104.05;;;10.00;55.90;;;;;;4995601;28;20060;-74
2022/05/03 01:34:01;;;;;;;116.55;105.95;;;9.90;56.10;;;;;;4995496;28;20089;-74
2022/05/03 01:36:47;;;;;;;114.55;104.00;;;9.80;56.30;;;;;;4995682;28;20061;-74
2022/05/03 01:39:16;;;;;;;;;;;9.70;56.50;;;;;;4995548;28;20129;-74
2022/05/03 01:41:49;;;;;;;115.47;104.65;;;9.70;55.40;;;;;;5013342;28;19929;-74
2022/05/03 01:44:34;;;;;;;113.75;103.20;;;9.70;56.40;;;;;;4995362;28;20056;-74
2022/05/03 01:47:19;;;;;;;115.93;105.25;;;9.70;56.80;;;;;;5012776;28;20054;-74
2022/05/03 01:50:18;;;;;;;115.47;104.93;;;9.70;56.80;;;;;;4995477;28;20640;-74
2022/05/03 01:53:13;;;;;;;114.90;104.30;;;9.70;57.60;;;;;;4994883;28;20505;-74
2022/05/03 01:56:04;;;;;;;115.68;105.05;;;9.60;57.40;;;;;;4995522;28;20523;-74
2022/05/03 01:58:41;;;;;;;113.72;103.35;;;9.60;57.70;;;;;;4994836;28;20333;-74
2022/05/03 02:01:13;;;;;;;;;;;9.50;58.10;;;;;;5011971;28;20050;-74
2022/05/03 02:03:46;;;;;;;113.40;102.85;;;9.50;57.30;;;;;;4995609;28;20205;-73
2022/05/03 02:06:14;;;;;;;115.53;104.82;;;9.40;57.90;;;;;;4994850;28;20054;-74
2022/05/03 02:08:53;;;;;;;115.05;104.35;;;9.40;58.00;;;;;;4994694;28;20509;-73
2022/05/03 02:11:46;;;;;;;115.07;104.47;;;9.40;58.30;;;;;;5012090;28;20066;-74
2022/05/03 02:17:04;;;;;;;116.05;105.45;;;9.40;58.30;;;;;;4994860;28;20574;-74
2022/05/03 02:19:44;;;;;;;114.90;104.38;;;9.40;58.40;;;;;;4994939;28;20078;-73
2022/05/03 02:22:37;;;;;;;113.60;103.20;;;9.40;58.40;;;;;;4995036;28;20062;-73
2022/05/03 02:25:12;;;;;;;113.30;102.88;;;9.30;58.50;;;;;;4994646;28;20058;-73
2022/05/03 02:27:46;;;;;;;114.38;103.93;;;9.40;58.80;;;;;;4996192;28;20137;-74
2022/05/03 02:30:15;;;;;;;113.97;103.57;;;9.30;58.90;;;;;;4998104;28;20043;-73
2022/05/03 02:32:54;;;;;;;113.10;102.80;;;9.30;58.80;;;;;;4998037;28;20057;-73
2022/05/03 02:35:22;;;;;;;112.95;102.55;;;9.30;59.20;;;;;;4998435;28;20133;-73
2022/05/03 02:37:51;;;;;;;112.93;102.50;;;9.20;59.10;;;;;;4998188;28;20053;-74
2022/05/03 02:40:21;;;;;;;114.20;103.60;;;9.20;59.20;;;;;;4998228;28;20496;-74
2022/05/03 02:42:49;;;;;;;115.25;104.57;;;9.20;59.50;;;;;;5015979;28;20050;-74
2022/05/03 02:45:19;;;;;;;113.13;102.70;;;9.10;59.50;;;;;;4998185;28;20050;-74
2022/05/03 02:48:02;;;;;;;114.43;103.53;;;9.10;59.60;;;;;;4997813;28;20491;-74
2022/05/03 02:50:31;;;;;;;114.60;103.90;;;9.00;59.80;;;;;;4997975;28;20053;-74
2022/05/03 02:53:03;;;;;;;115.30;104.63;;;8.90;59.90;;;;;;4997837;28;20051;-74
2022/05/03 02:55:38;;;;;;;114.60;103.80;;;8.90;60.20;;;;;;5015705;28;20058;-73
2022/05/03 02:58:07;;;;;;;116.93;104.53;;;8.90;60.30;;;;;;5015061;28;20085;-73
2022/05/03 03:03:54;;;;;;;113.65;103.00;;;8.80;59.90;;;;;;4997713;28;20047;-73
2022/05/03 03:06:22;;;;;;;;;;;8.80;59.70;;;;;;4998342;28;20141;-73
2022/05/03 03:08:52;;;;;;;114.05;103.22;;;8.80;58.50;;;;;;4997688;28;19932;-73
2022/05/03 03:11:31;;;;;;;113.10;102.45;;;8.70;59.40;;;;;;4997702;28;20082;-74
2022/05/03 03:14:12;;;;;;;113.18;102.57;;;8.70;59.80;;;;;;4997289;28;20050;-74
2022/05/03 03:16:45;;;;;;;113.30;102.63;;;8.70;59.70;;;;;;4997590;28;20058;-74
2022/05/03 03:19:32;;;;;;;112.88;102.38;;;8.70;60.00;;;;;;4997704;28;20413;-73
2022/05/03 03:22:02;;;;;;;112.43;101.80;;;8.60;60.00;;;;;;4997298;28;20082;-73
2022/05/03 03:24:30;;;;;;;113.53;102.85;;;8.60;60.20;;;;;;4997376;28;20054;-73
2022/05/03 03:27:00;;;;;;;114.78;104.18;;;8.60;60.40;;;;;;4997364;28;20055;-73
2022/05/03 03:29:30;;;;;;;113.78;103.18;;;8.60;60.70;;;;;;5015301;28;20573;-74
2022/05/03 03:31:58;;;;;;;113.40;102.90;;;8.50;60.90;;;;;;4996839;28;20127;-74
2022/05/03 03:34:28;;;;;;;113.25;102.60;;;8.50;61.20;;;;;;4997277;28;20050;-74
2022/05/03 03:37:01;;;;;;;116.53;105.60;;;8.50;61.50;;;;;;4997052;28;20054;-74
2022/05/03 03:39:30;;;;;;;116.53;106.03;;;8.50;61.60;;;;;;5014736;28;20061;-74
2022/05/03 03:41:57;;;;;;;112.22;101.93;;;8.50;61.90;;;;;;4996892;28;20607;-74
2022/05/03 03:44:25;;;;;;;113.78;103.38;;;8.40;62.00;;;;;;4996791;28;20050;-74
2022/05/03 03:46:52;;;;;;;114.20;103.90;;;8.40;62.20;;;;;;4996606;28;20152;-74
2022/05/03 03:49:19;;;;;;;112.10;101.70;;;8.30;62.20;;;;;;4996442;28;20055;-73
2022/05/03 03:51:48;;;;;;;110.55;100.35;;;8.30;62.30;;;;;;4997355;28;20062;-74
2022/05/03 03:54:15;;;;;;;110.85;100.72;;;8.30;62.50;;;;;;4996817;28;20043;-74
2022/05/03 03:56:43;;;;;;;111.57;101.38;;;8.30;62.50;;;;;;4996185;28;20046;-74
2022/05/03 03:59:10;;;;;;;110.95;100.75;;;8.30;62.70;;;;;;5014130;28;20065;-73
2022/05/03 04:01:37;;;;;;;109.47;99.40;;;8.30;62.90;;;;;;4996605;28;20038;-73
2022/05/03 04:04:05;;;;;;;111.78;101.47;;;8.20;63.00;;;;;;4996654;28;20054;-74
2022/05/03 04:06:32;;;;;;;110.90;100.75;;;8.20;63.20;;;;;;4997048;28;20058;-74
2022/05/03 04:09:00;;;;;;;112.05;101.90;;;8.20;63.30;;;;;;4996169;28;20046;-74
2022/05/03 04:11:27;;;;;;;113.80;102.90;;;8.20;63.50;;;;;;4996504;28;20078;-74
2022/05/03 04:13:54;;;;;;;122.03;102.72;;;8.20;63.50;;;;;;4996627;28;20050;-74
2022/05/03 04:16:21;;;;;;;114.38;103.53;;;8.20;63.70;;;;;;5013740;28;20054;-74
2022/05/03 04:18:48;;;;;;;112.53;102.03;;;8.10;64.20;;;;;;4996499;28;20499;-74
2022/05/03 04:21:17;;;;;;;112.95;102.47;;;8.00;64.50;;;;;;4996268;28;20062;-73
2022/05/03 04:23:44;;;;;;;111.53;101.32;;;7.90;65.00;;;;;;4996339;28;20051;-73
2022/05/03 04:26:13;;;;;;;111.93;101.63;;;7.90;65.40;;;;;;4996310;28;20054;-74
2022/05/03 04:28:40;;;;;;;111.72;101.18;;;7.90;65.80;;;;;;4996215;28;20058;-73
2022/05/03 04:31:07;;;;;;;114.07;103.07;;;7.90;66.10;;;;;;4996307;28;20055;-73
2022/05/03 04:33:34;;;;;;;115.07;104.15;;;7.80;66.30;;;;;;4996429;28;20046;-73
2022/05/03 04:36:01;;;;;;;115.82;104.47;;;7.90;66.90;;;;;;4996079;28;20055;-73
2022/05/03 04:38:28;;;;;;;115.93;104.95;;;7.80;67.60;;;;;;4995909;28;20050;-73
2022/05/03 04:40:59;;;;;;;115.47;104.45;;;7.80;68.10;;;;;;5013933;28;20093;-73
2022/05/03 04:43:28;;;;;;;115.95;104.78;;;7.80;68.80;;;;;;4996312;28;20559;-73
2022/05/03 04:45:55;;;;;;;116.82;105.40;;;7.80;69.40;;;;;;4996168;28;20049;-74
2022/05/03 04:48:22;;;;;;;117.18;106.28;;;7.80;69.90;;;;;;4996138;28;20042;-74
2022/05/03 04:50:49;;;;;;;116.60;105.70;;;7.80;70.80;;;;;;5011691;28;20074;-73
2022/05/03 04:53:16;;;;;;;116.53;105.35;;;7.80;71.40;;;;;;5013689;28;20050;-73
2022/05/03 04:55:44;;;;;;;117.03;106.03;;;7.80;71.90;;;;;;4996067;28;20520;-73
2022/05/03 04:58:11;;;;;;;115.82;104.82;;;7.80;72.70;;;;;;4995636;28;20061;-74
2022/05/03 05:00:39;;;;;;;118.13;106.95;;;7.80;73.30;;;;;;5013645;28;20061;-73
2022/05/03 05:03:07;;;;;;;116.07;105.28;;;7.80;73.90;;;;;;5013475;28;20047;-74
2022/05/03 05:05:34;;;;;;;116.30;105.43;;;7.80;74.20;;;;;;4995968;28;20046;-73
2022/05/03 05:08:04;;;;;;;119.10;108.00;;;7.80;74.70;;;;;;4995486;28;20129;-73
2022/05/03 05:10:32;;;;;;;119.95;108.75;;;7.80;75.40;;;;;;4995892;28;20055;-73
2022/05/03 05:13:00;;;;;;;118.47;107.35;;;7.80;75.60;;;;;;5012689;28;20152;-73
2022/05/03 05:15:27;;;;;;;119.07;107.78;;;7.80;76.30;;;;;;4995824;28;20042;-73
2022/05/03 05:17:58;;;;;;;118.35;106.88;;;7.80;76.60;;;;;;4995318;28;20056;-73
2022/05/03 05:20:26;;;;;;;123.15;111.57;;;7.80;77.20;;;;;;5013413;28;20464;-73
2022/05/03 05:22:54;;;;;;;119.22;107.95;;;7.80;77.60;;;;;;4995468;28;20056;-73
2022/05/03 05:25:21;;;;;;;121.22;110.03;;;7.80;77.90;;;;;;5013295;28;20436;-73
2022/05/03 05:27:47;;;;;;;121.95;110.55;;;7.80;78.50;;;;;;4995054;28;20085;-73
2022/05/03 05:30:14;;;;;;;121.88;110.57;;;7.80;78.80;;;;;;5012947;28;20057;-74
2022/05/03 05:32:41;;;;;;;123.63;112.30;;;7.90;79.30;;;;;;4995530;28;20432;-73
2022/05/03 05:35:10;;;;;;;120.70;109.30;;;7.90;79.70;;;;;;4995519;28;20076;-73
2022/05/03 05:37:37;;;;;;;121.68;110.28;;;7.90;80.30;;;;;;4994771;28;20181;-73
2022/05/03 05:40:06;;;;;;;121.65;110.13;;;8.00;80.80;;;;;;4995308;28;20047;-73
2022/05/03 05:42:33;;;;;;;117.88;106.65;;;8.00;81.30;;;;;;5013496;28;20052;-73
2022/05/03 05:44:59;;;;;;;121.88;110.25;;;8.00;81.60;;;;;;4995441;28;20050;-73
2022/05/03 05:47:27;;;;;;;122.80;111.15;;;8.10;82.30;;;;;;4995232;28;20042;-74
2022/05/03 05:49:54;;;;;;;122.30;110.68;;;8.10;82.80;;;;;;5012492;28;20152;-73
2022/05/03 05:55:08;;;;;;;121.13;108.93;;;8.20;84.30;;;;;;5012961;28;20051;-73
2022/05/03 05:57:35;;;;;;;123.03;109.78;;;8.20;84.70;;;;;;5012310;28;20050;-73
2022/05/03 06:00:03;;;;;;;123.82;111.55;;;8.20;85.60;;;;;;4995395;28;20050;-73
2022/05/03 06:02:39;;;;;;;126.25;113.35;;;8.30;86.10;;;;;;4994802;28;20057;-73
2022/05/03 06:05:07;;;;;;;125.57;113.25;;;8.30;86.40;;;;;;4994920;28;20046;-73
2022/05/03 06:07:35;;;;;;;127.10;114.75;;;8.40;87.30;;;;;;4994901;28;20600;-73
2022/05/03 06:10:02;;;;;;;129.80;117.35;;;8.50;88.00;;;;;;4994753;28;20046;-73
2022/05/03 06:12:29;;;;;;;130.18;117.38;;;8.50;88.60;;;;;;4994932;28;20046;-74
2022/05/03 06:14:56;;;;;;;129.55;116.53;;;8.60;89.00;;;;;;5011119;28;20129;-73
2022/05/03 06:17:23;;;;;;;129.60;116.88;;;8.60;89.40;;;;;;4994750;28;20058;-73
2022/05/03 06:19:50;;;;;;;135.75;122.72;;;8.60;88.30;;;;;;4994796;28;20053;-73
2022/05/03 06:22:17;;;;;;;131.27;118.75;;;8.70;88.20;;;;;;4995013;28;20048;-73
2022/05/03 06:24:47;;;;;;;131.93;118.90;;;8.70;88.40;;;;;;4995230;28;20051;-73
2022/05/03 06:27:14;;;;;;;133.90;121.07;;;8.70;88.80;;;;;;4994481;28;20054;-73
2022/05/03 06:29:41;;;;;;;133.27;120.25;;;8.80;89.20;;;;;;5012163;28;20050;-73
2022/05/03 06:32:10;;;;;;;130.50;117.80;;;8.80;89.30;;;;;;5012646;28;20050;-73
2022/05/03 06:34:37;;;;;;;130.63;117.88;;;8.80;90.00;;;;;;4995183;28;20046;-73
2022/05/03 06:37:04;;;;;;;134.35;121.30;;;8.90;89.10;;;;;;4994316;28;20542;-73
2022/05/03 06:39:31;;;;;;;134.73;121.32;;;9.00;90.10;;;;;;5012059;28;20058;-73
2022/05/03 06:42:00;;;;;;;138.32;124.43;;;9.00;90.50;;;;;;4994534;28;20134;-73
2022/05/03 06:44:27;;;;;;;138.88;124.53;;;9.10;90.90;;;;;;5012026;28;20652;-73
2022/05/03 06:46:54;;;;;;;137.23;123.38;;;9.10;91.00;;;;;;4994284;28;20496;-73
2022/05/03 06:49:21;;;;;;;139.70;125.63;;;9.20;91.00;;;;;;4994276;28;20050;-74
2022/05/03 06:51:49;;;;;;;142.07;127.57;;;9.20;90.80;;;;;;5011914;28;20483;-74
2022/05/03 06:54:16;;;;;;;138.48;124.22;;;9.30;91.30;;;;;;4994471;28;20050;-74
2022/05/03 06:56:43;;;;;;;141.35;126.60;;;9.30;91.00;;;;;;4993935;28;20141;-74
2022/05/03 06:59:11;;;;;;;142.27;127.65;;;9.40;91.10;;;;;;4994074;28;20057;-73
2022/05/03 07:01:38;;;;;;;141.25;127.20;;;9.40;91.20;;;;;;4994388;28;20046;-74
2022/05/03 07:04:05;;;;;;;142.30;127.75;;;9.50;91.80;;;;;;4994403;28;20047;-73
2022/05/03 07:06:32;;;;;;;148.32;133.05;;;9.60;92.20;;;;;;4994035;28;20141;-73
2022/05/03 07:08:59;;;;;;;143.13;128.73;;;9.70;92.20;;;;;;4994059;28;20057;-73
2022/05/03 07:11:26;;;;;;;148.25;132.82;;;9.70;91.70;;;;;;4994284;28;20050;-74
2022/05/03 07:13:53;;;;;;;148.48;132.70;;;9.80;92.00;;;;;;4996006;28;20057;-74
2022/05/03 07:16:21;;;;;;;152.93;136.23;;;9.80;91.90;;;;;;5015578;28;20058;-74
2022/05/03 07:24:16;;;;;;;146.35;130.55;;;10.00;92.30;;;;;;4997350;28;20057;-74
2022/05/03 07:26:43;;;;;;;154.13;133.63;;;10.00;91.90;;;;;;4997436;28;20500;-74
2022/05/03 07:29:10;;;;;;;155.93;130.02;;;10.10;92.40;;;;;;4996886;28;20057;-74
2022/05/03 07:31:41;;;;;;;151.02;130.90;;;10.10;92.60;;;;;;4997342;28;20047;-74
2022/05/03 07:34:08;;;;;;;157.60;130.60;;;10.10;92.60;;;;;;5015199;28;20065;-73
2022/05/03 07:36:36;;;;;;;158.68;131.05;;;10.10;92.50;;;;;;5014533;28;20058;-73
2022/05/03 07:39:03;;;;;;;150.05;127.85;;;10.10;92.30;;;;;;4997001;28;20043;-74
2022/05/03 07:41:30;;;;;;;151.98;128.55;;;10.20;92.20;;;;;;4997400;28;20046;-73
2022/05/03 07:43:57;;;;;;;152.45;129.68;;;10.30;92.30;;;;;;4996963;28;20572;-74
2022/05/03 07:46:24;;;;;;;146.02;126.78;;;10.30;92.10;;;;;;4996891;28;20077;-74
2022/05/03 07:48:54;;;;;;;147.70;127.53;;;10.30;92.00;;;;;;4996742;28;20539;-74
2022/05/03 07:51:21;;;;;;;158.13;131.55;;;10.30;92.10;;;;;;5014898;28;20062;-73
2022/05/03 07:53:48;;;;;;;147.30;127.32;;;10.40;92.00;;;;;;4996886;28;20054;-74
2022/05/03 07:56:15;;;;;;;151.02;128.60;;;10.40;92.00;;;;;;4996585;28;20057;-73
2022/05/03 07:58:42;;;;;;;147.23;127.65;;;10.40;92.00;;;;;;5014028;28;20137;-74
2022/05/03 08:01:09;;;;;;;149.95;130.63;;;10.50;92.40;;;;;;5014569;28;20061;-74
2022/05/03 08:03:36;;;;;;;143.25;127.63;;;10.50;92.20;;;;;;5014514;28;20145;-73
2022/05/03 08:06:04;;;;;;;143.10;127.45;;;10.50;92.40;;;;;;4996798;28;20517;-74
2022/05/03 08:08:31;;;;;;;142.57;127.35;;;10.60;92.60;;;;;;5014318;28;20053;-74
2022/05/03 08:10:58;;;;;;;139.07;124.22;;;10.60;93.00;;;;;;5014532;28;20428;-74
2022/05/03 08:13:25;;;;;;;141.30;126.22;;;10.60;93.20;;;;;;4996203;28;20556;-73
2022/05/03 08:15:52;;;;;;;140.57;126.13;;;10.60;93.40;;;;;;4996797;28;20055;-74
2022/05/03 08:18:19;;;;;;;137.30;122.93;;;10.70;93.50;;;;;;4996214;28;20050;-74
2022/05/03 08:20:46;;;;;;;138.25;124.00;;;10.70;93.50;;;;;;4996377;28;20124;-73
2022/05/03 08:23:14;;;;;;;136.45;122.47;;;10.70;93.40;;;;;;5014462;28;20539;-73
2022/05/03 08:25:41;;;;;;;138.75;124.28;;;10.70;93.40;;;;;;4995091;28;20050;-74
2022/05/03 08:28:08;;;;;;;134.98;121.47;;;10.80;93.40;;;;;;4995796;28;20050;-74
2022/05/03 08:30:35;;;;;;;122.85;110.72;;;10.80;93.40;;;;;;4996210;28;20129;-74
2022/05/03 08:33:03;;;;;;;120.65;108.90;;;10.80;93.70;;;;;;4996421;28;20057;-73
2022/05/03 08:35:29;;;;;;;117.30;106.18;;;10.90;93.90;;;;;;4996109;28;20050;-74
2022/05/03 08:43:26;;;;;;;115.88;103.97;;;11.00;93.90;;;;;;4996724;28;20058;-74
2022/05/03 08:45:53;;;;;;;115.75;104.45;;;11.00;93.80;;;;;;4996438;28;20045;-74
2022/05/03 08:48:28;;;;;;;115.20;104.05;;;11.00;93.90;;;;;;5013872;28;20054;-73
2022/05/03 08:50:55;;;;;;;116.25;105.00;;;11.00;93.80;;;;;;4996189;28;20129;-73
2022/05/03 08:53:23;;;;;;;116.43;105.25;;;11.10;93.90;;;;;;5013862;28;20129;-73
2022/05/03 08:55:52;;;;;;;115.97;104.38;;;11.10;93.80;;;;;;4995861;28;20064;-73
2022/05/03 08:58:20;;;;;;;117.32;105.65;;;11.20;93.80;;;;;;4995173;28;20049;-74
2022/05/03 09:00:47;;;;;;;117.82;106.32;;;11.20;93.90;;;;;;4996115;28;20057;-74
2022/05/03 09:03:15;;;;;;;117.75;105.30;;;11.20;93.90;;;;;;4996073;28;20089;-74
2022/05/03 09:05:42;;;;;;;118.40;106.68;;;11.30;93.90;;;;;;4995835;28;20510;-73
2022/05/03 09:08:11;;;;;;;117.55;106.45;;;11.30;94.00;;;;;;4995793;28;20194;-74
2022/05/03 09:10:39;;;;;;;123.47;111.82;;;11.30;93.90;;;;;;4995799;28;20156;-74
2022/05/03 09:13:18;;;;;;;117.18;105.88;;;11.30;93.90;;;;;;4995950;28;20056;-74
2022/05/03 09:15:47;;;;;;;117.07;105.75;;;11.40;93.90;;;;;;4995678;28;20101;-74
2022/05/03 09:18:22;;;;;;;117.43;106.35;;;11.30;93.80;;;;;;4995532;28;20054;-74
2022/05/03 09:23:49;;;;;;;116.55;104.97;;;11.40;93.60;;;;;;4995664;28;20046;-73
2022/05/03 09:26:19;;;;;;;118.13;106.57;;;11.40;93.60;;;;;;4995735;28;20050;-74
2022/05/03 09:28:50;;;;;;;117.65;106.38;;;11.40;93.50;;;;;;4995479;28;20050;-74
2022/05/03 09:31:32;;;;;;;116.97;105.88;;;11.50;93.40;;;;;;4995495;28;20050;-74
2022/05/03 09:34:00;;;;;;;118.28;106.95;;;11.50;93.30;;;;;;4995376;28;20050;-74
2022/05/03 09:36:28;;;;;;;119.68;106.57;;;11.50;93.20;;;;;;4995163;28;20054;-74
2022/05/03 09:38:56;;;;;;;118.57;105.47;;;11.50;93.10;;;;;;4995001;28;20121;-74
2022/05/03 09:41:24;;;;;;;116.53;105.03;;;11.50;93.30;;;;;;4995043;28;20107;-74
2022/05/03 09:44:06;;;;;;;117.30;105.35;;;11.60;93.20;;;;;;4995219;28;20125;-74
2022/05/03 09:46:52;;;;;;;117.60;105.60;;;11.60;93.20;;;;;;4995639;28;20066;-74
2022/05/03 09:49:21;;;;;;;117.57;105.68;;;11.60;93.00;;;;;;4995191;28;20054;-74
2022/05/03 09:51:49;;;;;;;117.28;105.55;;;11.60;93.00;;;;;;4994950;28;20053;-74
2022/05/03 09:54:17;;;;;;;117.35;105.35;;;11.60;93.00;;;;;;4994681;28;20509;-74
2022/05/03 09:56:48;;;;;;;118.70;106.03;;;11.60;92.90;;;;;;5012461;28;20054;-74
2022/05/03 09:59:18;;;;;;;118.00;106.05;;;11.60;92.80;;;;;;4995051;28;20344;-74
2022/05/03 10:01:45;;;;;;;116.97;105.30;;;11.60;92.80;;;;;;4995164;28;20065;-74
2022/05/03 10:04:14;;;;;;;117.60;106.13;;;11.60;92.60;;;;;;4995089;28;20054;-73
2022/05/03 10:06:41;;;;;;;119.78;108.07;;;11.60;92.50;;;;;;5012619;28;20050;-74
2022/05/03 10:09:08;;;;;;;119.93;108.07;;;11.60;92.40;;;;;;4995035;28;20074;-74
2022/05/03 10:11:40;;;;;;;118.47;106.72;;;11.70;92.30;;;;;;4994906;28;20085;-74
2022/05/03 10:14:08;;;;;;;117.40;105.75;;;11.70;92.40;;;;;;4994931;28;20058;-73
2022/05/03 10:22:07;;;;;;;127.43;115.22;;;11.70;92.00;;;;;;4994766;28;20093;-74
2022/05/03 10:24:55;;;;;;;114.88;103.35;;;11.80;91.90;;;;;;5012803;28;20080;-74
2022/05/03 10:27:25;;;;;;;116.60;105.07;;;11.80;91.80;;;;;;5012439;28;20053;-73
2022/05/03 10:30:16;;;;;;;116.97;105.18;;;11.80;91.80;;;;;;4994832;28;20046;-74
2022/05/03 10:32:44;;;;;;;117.43;105.72;;;11.90;91.40;;;;;;4994506;28;20058;-74
2022/05/03 10:35:32;;;;;;;115.97;104.28;;;11.80;91.50;;;;;;4994865;28;20085;-74
2022/05/03 10:38:07;;;;;;;117.32;105.78;;;11.90;91.30;;;;;;4994355;28;20047;-74
2022/05/03 10:40:39;;;;;;;117.40;105.38;;;11.90;91.30;;;;;;5010789;28;20054;-74
2022/05/03 10:43:09;;;;;;;117.10;105.50;;;11.90;91.10;;;;;;5012799;28;20050;-74
2022/05/03 10:45:52;;;;;;;114.22;103.13;;;12.00;91.00;;;;;;5012782;28;20081;-74
2022/05/03 10:48:28;;;;;;;116.88;105.10;;;12.00;90.80;;;;;;4993659;28;20113;-74
2022/05/03 10:51:01;;;;;;;115.97;104.90;;;12.00;90.80;;;;;;5015554;28;20464;-74
2022/05/03 10:53:30;;;;;;;115.60;104.00;;;12.00;90.60;;;;;;4997636;28;20587;-74
2022/05/03 10:56:18;;;;;;;115.88;104.70;;;12.10;90.50;;;;;;5014556;28;20133;-74
2022/05/03 10:59:12;;;;;;;114.97;103.78;;;12.10;90.20;;;;;;4997629;28;20567;-74
2022/05/03 11:02:06;;;;;;;115.32;104.07;;;12.20;90.10;;;;;;4998037;28;20129;-74
2022/05/03 11:04:36;;;;;;;115.00;104.10;;;12.20;89.80;;;;;;4997591;28;20528;-74
2022/05/03 11:07:03;;;;;;;119.57;107.80;;;12.20;89.90;;;;;;4997909;28;20104;-74
2022/05/03 11:09:31;;;;;;;114.78;103.45;;;12.30;89.60;;;;;;4997769;28;20065;-73
2022/05/03 11:12:06;;;;;;;115.25;104.00;;;12.30;89.20;;;;;;4997439;28;20061;-74
2022/05/03 11:14:53;;;;;;;115.82;104.88;;;12.30;88.60;;;;;;4997672;28;20073;-74
2022/05/03 11:17:20;;;;;;;117.72;104.85;;;12.30;88.10;;;;;;4997223;28;20105;-74
2022/05/03 11:19:58;;;;;;;113.75;102.85;;;12.30;87.70;;;;;;5013809;28;20051;-74
2022/05/03 11:22:35;;;;;;;112.57;101.80;;;12.40;87.40;;;;;;4997248;28;20053;-74
2022/05/03 11:25:13;;;;;;;113.28;102.25;;;12.40;87.30;;;;;;4997281;28;20058;-74
2022/05/03 11:27:40;;;;;;;115.38;104.57;;;12.40;87.00;;;;;;4996739;28;20097;-74
2022/05/03 11:30:10;;;;;;;114.88;103.50;;;12.50;87.30;;;;;;4997380;28;20133;-74
2022/05/03 11:32:40;;;;;;;114.80;103.57;;;12.50;87.10;;;;;;4997051;28;20109;-74
2022/05/03 11:35:14;;;;;;;113.82;102.38;;;12.50;86.70;;;;;;4997399;28;20053;-74
2022/05/03 11:37:54;;;;;;;112.90;102.07;;;12.60;85.60;;;;;;4996934;28;20053;-74
2022/05/03 11:40:24;;;;;;;149.65;105.97;;;12.70;85.70;;;;;;5014833;28;20057;-74
2022/05/03 11:42:51;;;;;;;114.10;102.95;;;12.70;85.70;;;;;;4997017;28;20556;-74
2022/05/03 11:45:19;;;;;;;115.40;104.10;;;12.80;85.50;;;;;;4997016;28;20085;-74
2022/05/03 11:47:47;;;;;;;113.25;102.22;;;12.80;85.20;;;;;;4997007;28;20161;-74
2022/05/03 11:56:04;;;;;;;113.72;102.82;;;12.90;83.80;;;;;;5014350;28;20201;-74
2022/05/03 11:58:35;;;;;;;114.18;103.53;;;13.00;83.60;;;;;;5014104;28;20146;-74
2022/05/03 12:01:02;;;;;;;112.95;102.43;;;13.00;83.20;;;;;;4996942;28;20050;-73
2022/05/03 12:03:44;;;;;;;113.28;102.70;;;13.10;83.00;;;;;;4996884;28;20042;-74
2022/05/03 12:06:12;;;;;;;114.20;103.43;;;13.20;82.80;;;;;;4996700;28;20046;-74
2022/05/03 12:08:39;;;;;;;114.53;103.93;;;13.20;82.30;;;;;;4996249;28;20057;-74
2022/05/03 12:11:18;;;;;;;113.05;102.32;;;13.20;81.90;;;;;;4997297;28;20054;-74
2022/05/03 12:13:45;;;;;;;114.00;103.38;;;13.30;81.40;;;;;;4996851;28;20042;-74
2022/05/03 12:16:15;;;;;;;112.35;102.13;;;13.30;81.00;;;;;;4996603;28;20053;-74
2022/05/03 12:18:45;;;;;;;114.25;103.20;;;13.40;80.20;;;;;;4996301;28;20069;-74
2022/05/03 12:21:16;;;;;;;113.65;103.43;;;13.40;79.90;;;;;;4996768;28;20133;-74
2022/05/03 12:23:45;;;;;;;112.30;102.30;;;13.40;79.40;;;;;;4996460;28;20046;-74
2022/05/03 12:26:37;;;;;;;114.22;103.82;;;13.50;79.20;;;;;;5013979;28;20054;-74
2022/05/03 12:29:05;;;;;;;114.18;103.30;;;13.50;78.20;;;;;;4990912;28;20054;-74
2022/05/03 12:31:35;;;;;;;113.25;102.82;;;13.60;78.60;;;;;;5014134;28;20556;-74
2022/05/03 12:34:07;;;;;;;113.55;103.15;;;13.60;78.30;;;;;;4996362;28;20049;-74
2022/05/03 12:36:38;;;;;;;114.85;103.97;;;13.70;77.90;;;;;;4996459;28;20057;-74
2022/05/03 12:39:14;;;;;;;113.82;103.35;;;13.70;77.50;;;;;;4995977;28;20050;-74
2022/05/03 12:41:43;;;;;;;112.60;102.15;;;13.80;77.30;;;;;;4996721;28;20129;-74
2022/05/03 12:44:12;;;;;;;113.40;103.25;;;13.90;77.40;;;;;;5014296;28;20054;-74
2022/05/03 12:46:40;;;;;;;132.68;121.10;;;13.90;77.30;;;;;;4996291;28;20073;-74
2022/05/03 12:49:11;;;;;;;128.52;117.30;;;13.90;77.20;;;;;;4995993;28;20050;-74
2022/05/03 12:51:41;;;;;;;116.28;105.75;;;14.00;76.80;;;;;;4996223;28;20050;-74
2022/05/03 12:54:08;;;;;;;117.93;107.55;;;14.10;76.60;;;;;;4996050;28;20517;-74
2022/05/03 12:59:21;;;;;;;116.03;105.53;;;14.20;76.00;;;;;;4995608;28;20046;-74
2022/05/03 13:01:50;;;;;;;118.50;107.90;;;14.30;75.60;;;;;;4995748;28;20057;-74
2022/05/03 13:04:17;;;;;;;117.85;107.45;;;14.30;75.00;;;;;;4995924;28;20046;-73
2022/05/03 13:06:46;;;;;;;116.30;105.85;;;14.40;74.80;;;;;;5013335;28;20081;-74
2022/05/03 13:09:13;;;;;;;116.85;106.55;;;14.50;73.90;;;;;;4995376;28;20065;-74